Time;durP1;ratioP1;P1;durP2;ratioP2;P2;SDS_P1;SDS_P2;PMS_P1;PMS_P2;Temp;Humidity;BMP_temperature;BMP_pressure;BME280_temperature;BME280_humidity;BME280_pressure;Samples;Min_cycle;Max_cycle;Signal;HPM_P1;HPM_P2
2023/03/13 00:01:14;;;;;;;16.60;4.65;;;;;;;9.52;100.00;-18284.38;5021140;28;20038;-84
2023/03/13 00:03:40;;;;;;;22.40;4.70;;;;;;;9.48;100.00;-18283.41;5023983;28;20076;-85
2023/03/13 00:06:06;;;;;;;17.10;4.40;;;;;;;9.45;100.00;-18282.59;5021225;28;20156;-85
2023/03/13 00:08:31;;;;;;;21.02;4.53;;;;;;;9.41;100.00;-18281.50;5026090;28;20041;-84
2023/03/13 00:10:57;;;;;;;20.85;5.95;;;;;;;9.42;100.00;-18281.75;5022993;28;20041;-85
2023/03/13 00:13:22;;;;;;;18.45;4.50;;;;;;;9.39;100.00;-18280.81;5007656;28;20112;-85
2023/03/13 00:15:47;;;;;;;26.45;5.70;;;;;;;9.36;100.00;-18279.97;5019895;28;20053;-85
2023/03/13 00:18:13;;;;;;;23.70;5.18;;;;;;;9.32;100.00;-18278.88;5034006;28;20167;-84
2023/03/13 00:20:39;;;;;;;18.40;4.97;;;;;;;9.29;100.00;-18278.06;5018838;28;20085;-85
2023/03/13 00:23:04;;;;;;;16.88;5.78;;;;;;;9.26;100.00;-18277.50;5009302;28;20132;-85
2023/03/13 00:25:29;;;;;;;20.27;4.55;;;;;;;9.21;100.00;-18276.13;5023259;28;20134;-84
2023/03/13 00:27:55;;;;;;;22.45;5.25;;;;;;;9.20;100.00;-18275.84;5028137;28;20033;-84
2023/03/13 00:30:20;;;;;;;24.35;4.43;;;;;;;9.19;100.00;-18275.56;5023917;28;20080;-84
2023/03/13 00:32:47;;;;;;;23.83;4.45;;;;;;;9.16;100.00;-18274.75;5018215;28;20527;-84
2023/03/13 00:35:13;;;;;;;19.10;4.22;;;;;;;9.14;100.00;-18274.19;5024702;28;20052;-84
2023/03/13 00:37:38;;;;;;;21.63;4.75;;;;;;;9.12;100.00;-18273.66;5024814;28;20528;-85
2023/03/13 00:40:05;;;;;;;23.98;4.63;;;;;;;9.09;100.00;-18272.69;5026082;28;20045;-84
2023/03/13 00:42:30;;;;;;;22.63;5.30;;;;;;;9.06;100.00;-18271.84;5022727;28;20465;-84
2023/03/13 00:44:56;;;;;;;23.27;4.47;;;;;;;9.06;100.00;-18272.00;5022256;28;20091;-84
2023/03/13 00:47:21;;;;;;;21.50;5.40;;;;;;;9.01;100.00;-18270.63;5021371;28;20095;-84
2023/03/13 00:49:46;;;;;;;25.30;4.78;;;;;;;8.94;100.00;-18268.69;5006530;28;20037;-84
2023/03/13 00:52:12;;;;;;;19.95;5.55;;;;;;;8.93;100.00;-18268.56;5025163;28;20042;-84
2023/03/13 00:54:38;;;;;;;19.65;5.03;;;;;;;8.90;100.00;-18267.59;5026448;28;20072;-84
2023/03/13 00:57:03;;;;;;;20.83;5.13;;;;;;;8.87;100.00;-18266.78;5024718;28;20050;-84
2023/03/13 00:59:29;;;;;;;28.88;5.90;;;;;;;8.86;100.00;-18266.50;5015976;28;20654;-84
2023/03/13 01:01:54;;;;;;;20.60;6.47;;;;;;;8.81;100.00;-18265.41;5023216;28;20046;-84
2023/03/13 01:04:19;;;;;;;19.40;5.35;;;;;;;8.81;100.00;-18265.41;5014157;28;20045;-84
2023/03/13 01:06:45;;;;;;;17.73;5.05;;;;;;;8.78;100.00;-18264.44;5020467;28;20045;-84
2023/03/13 01:09:14;;;;;;;16.92;5.40;;;;;;;8.72;100.00;-18262.91;5028623;28;20042;-84
2023/03/13 01:11:40;;;;;;;21.92;5.93;;;;;;;8.73;100.00;-18263.06;5027273;28;20088;-84
2023/03/13 01:14:09;;;;;;;29.73;5.78;;;;;;;8.71;100.00;-18262.50;5024236;28;20412;-84
2023/03/13 01:16:36;;;;;;;31.05;6.13;;;;;;;8.70;100.00;-18262.38;5020210;28;20554;-84
2023/03/13 01:19:05;;;;;;;19.77;5.35;;;;;;;8.68;100.00;-18261.69;5020711;28;20073;-84
2023/03/13 01:21:31;;;;;;;22.73;6.45;;;;;;;8.67;100.00;-18261.41;5017401;28;20069;-84
2023/03/13 01:23:56;;;;;;;21.45;5.03;;;;;;;8.70;100.00;-18262.38;5023620;28;20576;-84
2023/03/13 01:26:23;;;;;;;21.45;6.22;;;;;;;8.72;100.00;-18262.78;5007893;28;20088;-84
2023/03/13 01:28:49;;;;;;;23.25;5.50;;;;;;;8.70;100.00;-18262.38;5022846;28;20048;-84
2023/03/13 01:31:22;;;;;;;21.10;4.60;;;;;;;8.66;100.00;-18261.13;4998098;28;20041;-84
2023/03/13 01:33:50;;;;;;;17.48;4.63;;;;;;;8.65;100.00;-18261.00;5020714;28;20041;-85
2023/03/13 01:36:16;;;;;;;28.50;6.03;;;;;;;8.68;100.00;-18261.81;5014521;28;20037;-84
2023/03/13 01:38:42;;;;;;;19.80;5.30;;;;;;;8.68;100.00;-18261.81;5027851;28;20045;-84
2023/03/13 01:41:10;;;;;;;23.40;7.35;;;;;;;8.68;100.00;-18261.81;5029633;28;20042;-84
2023/03/13 01:43:36;;;;;;;17.52;5.35;;;;;;;8.67;100.00;-18261.53;5026375;28;20052;-84
2023/03/13 01:46:04;;;;;;;22.52;5.63;;;;;;;8.66;100.00;-18261.28;5025740;28;20050;-85
2023/03/13 01:48:57;;;;;;;20.67;5.22;;;;;;;8.63;100.00;-18260.31;5028452;28;20053;-84
2023/03/13 01:51:28;;;;;;;25.70;5.65;;;;;;;8.58;100.00;-18259.19;5023119;28;20042;-84
2023/03/13 01:54:00;;;;;;;26.48;5.75;;;;;;;8.61;100.00;-18259.88;5028122;28;20125;-84
2023/03/13 01:56:39;;;;;;;23.65;5.60;;;;;;;8.71;100.00;-18262.63;5032164;28;20038;-84
2023/03/13 01:59:07;;;;;;;24.20;6.97;;;;;;;8.67;100.00;-18261.41;5011494;28;20469;-84
2023/03/13 02:01:33;;;;;;;24.75;6.65;;;;;;;8.65;100.00;-18260.84;5027759;28;20551;-84
2023/03/13 02:03:59;;;;;;;25.38;6.45;;;;;;;8.63;100.00;-18260.44;5024918;28;20037;-84
2023/03/13 02:06:28;;;;;;;22.92;5.90;;;;;;;8.64;100.00;-18260.72;5019097;28;20432;-84
2023/03/13 02:08:58;;;;;;;27.85;7.68;;;;;;;8.62;100.00;-18260.16;5023038;28;20125;-85
2023/03/13 02:11:38;;;;;;;19.80;7.40;;;;;;;8.63;100.00;-18260.31;5023831;28;20069;-84
2023/03/13 02:14:04;;;;;;;20.77;7.05;;;;;;;8.61;100.00;-18259.88;5032313;28;20233;-84
2023/03/13 02:16:33;;;;;;;23.55;7.90;;;;;;;8.59;100.00;-18259.47;5032395;28;20559;-85
2023/03/13 02:18:59;;;;;;;19.65;7.82;;;;;;;8.60;100.00;-18259.63;5029503;28;20041;-84
2023/03/13 02:21:42;;;;;;;22.42;7.35;;;;;;;8.65;100.00;-18261.00;5029320;28;20092;-84
2023/03/13 02:24:24;;;;;;;20.27;7.50;;;;;;;8.67;100.00;-18261.41;5001849;28;20047;-84
2023/03/13 02:26:50;;;;;;;18.92;7.82;;;;;;;8.66;100.00;-18261.28;5009970;28;20052;-84
2023/03/13 02:29:17;;;;;;;21.95;9.13;;;;;;;8.71;100.00;-18262.50;5031094;28;20492;-84
2023/03/13 02:31:46;;;;;;;21.65;8.68;;;;;;;8.72;100.00;-18262.91;5010752;28;20401;-84
2023/03/13 02:34:16;;;;;;;20.63;9.35;;;;;;;8.75;100.00;-18263.75;5029227;28;20453;-84
2023/03/13 02:36:42;;;;;;;19.13;9.88;;;;;;;8.77;100.00;-18264.16;5022981;28;20044;-84
2023/03/13 02:39:08;;;;;;;19.27;9.35;;;;;;;8.82;100.00;-18265.66;5032325;28;20048;-84
2023/03/13 02:41:34;;;;;;;18.45;8.93;;;;;;;8.84;100.00;-18265.94;5013040;28;20038;-85
2023/03/13 02:43:59;;;;;;;18.80;9.20;;;;;;;8.87;100.00;-18266.78;5024500;28;20065;-84
2023/03/13 02:46:25;;;;;;;21.27;9.13;;;;;;;8.91;100.00;-18267.88;5011648;28;20034;-84
2023/03/13 02:48:53;;;;;;;14.40;8.48;;;;;;;9.01;100.00;-18270.75;5024769;28;20046;-85
2023/03/13 02:51:24;;;;;;;16.42;9.00;;;;;;;9.00;100.00;-18270.34;5019584;28;20092;-85
2023/03/13 02:53:52;;;;;;;22.02;9.23;;;;;;;8.99;100.00;-18270.06;5017975;28;20137;-85
2023/03/13 02:56:21;;;;;;;16.27;8.73;;;;;;;9.01;100.00;-18270.75;5021378;28;20053;-86
2023/03/13 02:58:46;;;;;;;18.00;9.95;;;;;;;9.04;100.00;-18271.44;5024322;28;20057;-85
2023/03/13 03:01:12;;;;;;;17.40;8.40;;;;;;;9.08;100.00;-18272.41;5003143;28;20041;-85
2023/03/13 03:03:37;;;;;;;20.67;11.00;;;;;;;9.07;100.00;-18272.13;5019850;28;20064;-85
2023/03/13 03:06:05;;;;;;;15.23;10.43;;;;;;;9.09;100.00;-18272.81;5007807;28;20045;-85
2023/03/13 03:08:31;;;;;;;12.82;8.77;;;;;;;9.15;100.00;-18274.47;5027512;28;20045;-85
2023/03/13 03:10:56;;;;;;;15.98;8.98;;;;;;;9.13;100.00;-18273.78;5023966;28;20440;-85
2023/03/13 03:13:21;;;;;;;19.17;10.73;;;;;;;9.16;100.00;-18274.63;5027038;28;20600;-85
2023/03/13 03:15:47;;;;;;;14.82;11.52;;;;;;;9.14;100.00;-18274.19;5024095;28;20423;-85
2023/03/13 03:18:12;;;;;;;20.55;9.77;;;;;;;9.19;100.00;-18275.56;5023020;28;20033;-85
2023/03/13 03:20:37;;;;;;;20.92;12.73;;;;;;;9.23;100.00;-18276.66;5021125;28;20436;-85
2023/03/13 03:23:03;;;;;;;23.83;12.48;;;;;;;9.29;100.00;-18278.19;5024919;28;20069;-85
2023/03/13 03:25:28;;;;;;;19.75;12.05;;;;;;;9.32;100.00;-18278.88;5019029;28;20068;-84
2023/03/13 03:27:54;;;;;;;22.33;13.05;;;;;;;9.35;100.00;-18279.84;5024932;28;20038;-85
2023/03/13 03:30:19;;;;;;;19.20;13.35;;;;;;;9.36;100.00;-18279.97;5009691;28;20069;-85
2023/03/13 03:32:44;;;;;;;21.58;12.75;;;;;;;9.45;100.00;-18282.44;5019108;28;20038;-85
2023/03/13 03:35:10;;;;;;;20.65;13.07;;;;;;;9.45;100.00;-18282.44;5022314;28;20132;-85
2023/03/13 03:37:35;;;;;;;19.95;11.68;;;;;;;9.46;100.00;-18282.88;5016250;28;20046;-85
2023/03/13 03:40:01;;;;;;;18.58;11.68;;;;;;;9.51;100.00;-18283.97;5016338;28;20045;-85
2023/03/13 03:42:26;;;;;;;18.90;11.98;;;;;;;9.52;100.00;-18284.38;5020843;28;20048;-85
2023/03/13 03:44:51;;;;;;;21.52;12.50;;;;;;;9.56;100.00;-18285.47;5022377;28;20614;-85
2023/03/13 03:47:17;;;;;;;21.20;12.30;;;;;;;9.63;100.00;-18287.41;5009735;28;20057;-85
2023/03/13 03:49:42;;;;;;;20.63;12.07;;;;;;;9.72;100.00;-18289.75;5008163;28;20048;-85
2023/03/13 03:52:07;;;;;;;22.50;11.18;;;;;;;9.74;100.00;-18290.16;5024149;28;20041;-85
2023/03/13 03:54:33;;;;;;;15.20;10.98;;;;;;;9.75;100.00;-18290.56;5025812;28;20037;-84
2023/03/13 03:56:59;;;;;;;19.90;12.07;;;;;;;9.79;100.00;-18291.66;5004623;28;20145;-85
2023/03/13 03:59:24;;;;;;;15.68;11.98;;;;;;;9.82;100.00;-18292.34;5009604;28;20124;-85
2023/03/13 04:01:50;;;;;;;18.83;11.48;;;;;;;9.86;100.00;-18293.44;5022780;28;20046;-85
2023/03/13 04:04:15;;;;;;;18.13;12.27;;;;;;;9.85;100.00;-18293.19;5004296;28;20041;-84
2023/03/13 04:06:40;;;;;;;13.20;10.68;;;;;;;9.87;100.00;-18293.88;5024381;28;20049;-85
2023/03/13 04:09:06;;;;;;;18.13;12.88;;;;;;;9.91;100.00;-18294.97;5023194;28;20470;-84
2023/03/13 04:11:31;;;;;;;16.90;11.48;;;;;;;9.93;100.00;-18295.50;5010096;28;20037;-85
2023/03/13 04:13:56;;;;;;;14.52;11.90;;;;;;;9.97;100.00;-18296.47;5025703;28;20041;-85
2023/03/13 04:16:22;;;;;;;17.45;11.65;;;;;;;10.02;100.00;-18297.72;5014441;28;20123;-84
2023/03/13 04:18:47;;;;;;;14.98;12.27;;;;;;;10.05;100.00;-18298.69;5020511;28;20682;-84
2023/03/13 04:21:13;;;;;;;17.33;12.60;;;;;;;10.08;100.00;-18299.50;5023412;28;20033;-84
2023/03/13 04:23:38;;;;;;;18.17;12.30;;;;;;;10.08;100.00;-18299.38;4999682;28;20124;-84
2023/03/13 04:26:03;;;;;;;15.50;11.07;;;;;;;10.13;100.00;-18300.88;5016344;28;20068;-84
2023/03/13 04:28:29;;;;;;;13.50;12.07;;;;;;;10.09;100.00;-18299.63;5026585;28;20068;-84
2023/03/13 04:30:56;;;;;;;15.25;12.75;;;;;;;10.14;100.00;-18301.16;5018339;28;20048;-85
2023/03/13 04:33:23;;;;;;;14.23;11.95;;;;;;;10.15;100.00;-18301.41;5021635;28;20049;-85
2023/03/13 04:35:48;;;;;;;14.30;11.82;;;;;;;10.17;100.00;-18301.84;5021869;28;20514;-85
2023/03/13 04:38:13;;;;;;;17.55;12.70;;;;;;;10.19;100.00;-18302.25;4995795;28;20065;-85
2023/03/13 04:40:39;;;;;;;13.63;12.07;;;;;;;10.18;100.00;-18302.09;5025083;28;20042;-85
2023/03/13 04:43:04;;;;;;;15.75;13.32;;;;;;;10.21;100.00;-18302.94;5019843;28;20121;-85
2023/03/13 04:45:29;;;;;;;17.55;13.52;;;;;;;10.22;100.00;-18303.06;5021547;28;20075;-84
2023/03/13 04:47:55;;;;;;;17.13;11.52;;;;;;;10.26;100.00;-18304.16;5019750;28;20037;-84
2023/03/13 04:50:20;;;;;;;18.77;12.90;;;;;;;10.30;100.00;-18305.28;5022200;28;20133;-85
2023/03/13 04:52:45;;;;;;;16.33;11.65;;;;;;;10.36;100.00;-18306.94;5017661;28;20393;-85
2023/03/13 04:55:11;;;;;;;15.00;13.23;;;;;;;10.38;100.00;-18307.47;5020668;28;20046;-84
2023/03/13 04:57:36;;;;;;;17.60;13.85;;;;;;;10.45;100.00;-18309.25;5019801;28;20059;-85
2023/03/13 05:00:06;;;;;;;15.82;11.38;;;;;;;10.45;100.00;-18309.41;5022535;28;20566;-84
2023/03/13 05:02:32;;;;;;;15.90;12.30;;;;;;;10.49;100.00;-18310.50;5001879;28;20450;-84
2023/03/13 05:04:57;;;;;;;14.35;12.90;;;;;;;10.49;100.00;-18310.50;5006547;28;20075;-84
2023/03/13 05:07:23;;;;;;;15.40;13.88;;;;;;;10.52;100.00;-18311.31;4999495;28;20033;-84
2023/03/13 05:09:48;;;;;;;14.57;12.88;;;;;;;10.56;100.00;-18312.44;5018322;28;20116;-84
2023/03/13 05:12:13;;;;;;;16.70;13.75;;;;;;;10.63;100.00;-18314.06;5025565;28;20409;-84
2023/03/13 05:14:39;;;;;;;16.13;13.35;;;;;;;10.63;100.00;-18314.22;5017941;28;20128;-84
2023/03/13 05:17:04;;;;;;;14.52;13.05;;;;;;;10.66;100.00;-18314.91;5002196;28;20041;-85
2023/03/13 05:19:29;;;;;;;14.15;12.75;;;;;;;10.68;100.00;-18315.59;5019777;28;20551;-85
2023/03/13 05:21:55;;;;;;;17.92;13.63;;;;;;;10.71;100.00;-18316.28;5010029;28;20029;-84
2023/03/13 05:24:20;;;;;;;16.83;12.98;;;;;;;10.71;100.00;-18316.41;5002463;28;20089;-84
2023/03/13 05:26:45;;;;;;;16.10;13.82;;;;;;;10.73;100.00;-18316.97;5022075;28;20124;-84
2023/03/13 05:29:11;;;;;;;15.48;13.88;;;;;;;10.78;100.00;-18318.19;5021476;28;20544;-85
2023/03/13 05:31:36;;;;;;;16.85;13.68;;;;;;;10.82;100.00;-18319.28;5002824;28;20405;-84
2023/03/13 05:34:01;;;;;;;19.13;15.23;;;;;;;10.84;100.00;-18319.84;5025716;28;20037;-85
2023/03/13 05:36:27;;;;;;;15.95;14.18;;;;;;;10.83;100.00;-18319.56;5021047;28;20040;-84
2023/03/13 05:41:18;;;;;;;21.08;15.23;;;;;;;10.86;100.00;-18320.25;5189362;22;20099;-85
2023/03/13 05:43:43;;;;;;;19.33;16.17;;;;;;;10.89;100.00;-18321.06;5020309;28;20483;-86
2023/03/13 05:46:08;;;;;;;15.93;14.27;;;;;;;10.90;100.00;-18321.34;5022580;28;20037;-86
2023/03/13 05:48:34;;;;;;;17.25;14.75;;;;;;;10.89;100.00;-18321.22;4998865;28;20046;-86
2023/03/13 05:50:59;;;;;;;16.90;15.10;;;;;;;10.94;100.00;-18322.59;5005073;28;20037;-84
2023/03/13 05:53:25;;;;;;;19.40;16.70;;;;;;;10.97;100.00;-18323.41;5023502;28;20641;-84
2023/03/13 05:55:50;;;;;;;19.08;17.08;;;;;;;11.01;100.00;-18324.38;5019351;28;20049;-85
2023/03/13 05:58:15;;;;;;;20.10;15.70;;;;;;;11.06;100.00;-18325.88;5019216;28;20175;-85
2023/03/13 06:00:42;;;;;;;17.60;15.55;;;;;;;11.06;100.00;-18325.88;4997607;28;20101;-85
2023/03/13 06:03:08;;;;;;;18.70;15.95;;;;;;;11.10;100.00;-18326.84;5021471;28;20083;-86
2023/03/13 06:05:33;;;;;;;16.08;14.38;;;;;;;11.12;100.00;-18327.25;5000934;28;20054;-86
2023/03/13 06:07:59;;;;;;;20.00;16.20;;;;;;;11.13;100.00;-18327.53;5024294;28;20044;-85
2023/03/13 06:10:24;;;;;;;18.58;15.73;;;;;;;11.13;100.00;-18327.66;5011390;28;20125;-85
2023/03/13 06:12:54;;;;;;;20.23;16.30;;;;;;;11.15;100.00;-18328.22;5025991;28;20045;-85
2023/03/13 06:15:20;;;;;;;23.98;15.98;;;;;;;11.19;100.00;-18329.31;5028403;28;20768;-85
2023/03/13 06:17:45;;;;;;;17.13;14.93;;;;;;;11.18;100.00;-18328.91;5020155;28;20084;-85
2023/03/13 06:20:11;;;;;;;17.98;14.70;;;;;;;11.21;100.00;-18329.72;5025963;28;20042;-85
2023/03/13 06:22:36;;;;;;;23.35;15.48;;;;;;;11.22;100.00;-18330.00;5001154;28;20045;-85
2023/03/13 06:25:02;;;;;;;16.80;14.25;;;;;;;11.19;100.00;-18329.31;5012003;28;20045;-85
2023/03/13 06:27:27;;;;;;;18.45;15.50;;;;;;;11.19;100.00;-18329.19;5035763;28;20048;-85
2023/03/13 06:29:53;;;;;;;18.42;14.93;;;;;;;11.22;100.00;-18330.00;5018869;28;20978;-85
2023/03/13 06:32:18;;;;;;;18.50;14.77;;;;;;;11.24;100.00;-18330.69;5009062;28;20052;-85
2023/03/13 06:34:43;;;;;;;19.35;14.25;;;;;;;11.25;100.00;-18330.97;5000523;28;20052;-84
2023/03/13 06:37:09;;;;;;;15.70;13.23;;;;;;;11.30;100.00;-18332.34;5031753;28;20439;-86
2023/03/13 06:39:34;;;;;;;16.40;14.48;;;;;;;11.36;100.00;-18333.84;5026645;28;20077;-85
2023/03/13 06:41:59;;;;;;;16.88;12.75;;;;;;;11.38;100.00;-18334.41;5025581;28;20045;-85
2023/03/13 06:44:25;;;;;;;14.55;12.77;;;;;;;11.42;100.00;-18335.50;5026301;28;20048;-85
2023/03/13 06:46:51;;;;;;;14.48;12.52;;;;;;;11.46;100.00;-18336.59;5025353;28;20625;-85
2023/03/13 06:49:16;;;;;;;15.15;12.13;;;;;;;11.47;100.00;-18336.88;5001522;28;20037;-85
2023/03/13 06:51:41;;;;;;;11.88;10.68;;;;;;;11.51;100.00;-18337.84;5011865;28;20618;-85
2023/03/13 06:54:06;;;;;;;14.30;10.02;;;;;;;11.53;100.00;-18338.38;5022253;28;20487;-85
2023/03/13 06:56:32;;;;;;;11.23;10.10;;;;;;;11.51;100.00;-18337.84;5018421;28;20584;-85
2023/03/13 06:58:57;;;;;;;14.38;11.10;;;;;;;11.52;100.00;-18338.25;5019954;28;20464;-85
2023/03/13 07:01:23;;;;;;;12.20;10.63;;;;;;;11.53;100.00;-18338.50;5022138;28;20041;-85
2023/03/13 07:03:48;;;;;;;11.95;10.00;;;;;;;11.52;100.00;-18338.25;5012111;28;20528;-85
2023/03/13 07:06:14;;;;;;;11.48;9.45;;;;;;;11.60;100.00;-18340.16;5012749;28;20575;-85
2023/03/13 07:08:40;;;;;;;12.10;8.23;;;;;;;11.63;100.00;-18341.00;4999675;28;20053;-85
2023/03/13 07:11:08;;;;;;;11.65;9.85;;;;;;;11.65;100.00;-18341.53;5026697;28;20112;-85
2023/03/13 07:13:34;;;;;;;11.55;8.23;;;;;;;11.71;100.00;-18343.31;5023319;28;20037;-85
2023/03/13 07:16:04;;;;;;;9.43;7.25;;;;;;;11.75;100.00;-18344.28;5021061;28;20045;-85
2023/03/13 07:18:31;;;;;;;10.73;7.05;;;;;;;11.80;100.00;-18345.66;5022618;28;20045;-84
2023/03/13 07:20:58;;;;;;;9.90;6.30;;;;;;;11.81;100.00;-18345.94;5022658;28;20494;-85
2023/03/13 07:23:25;;;;;;;11.52;6.68;;;;;;;11.84;100.00;-18346.75;5018085;28;20056;-85
2023/03/13 07:25:53;;;;;;;12.52;6.40;;;;;;;11.88;100.00;-18347.84;4998070;28;20038;-85
2023/03/13 07:28:19;;;;;;;9.63;6.38;;;;;;;11.92;100.00;-18348.94;5030493;28;20071;-87
2023/03/13 07:30:44;;;;;;;11.27;6.10;;;;;;;11.96;100.00;-18349.91;5029978;28;20079;-85
2023/03/13 07:33:09;;;;;;;9.63;5.25;;;;;;;11.98;100.00;-18350.31;5028024;28;20044;-85
2023/03/13 07:35:35;;;;;;;8.55;4.97;;;;;;;11.99;100.00;-18350.59;5026126;28;20040;-86
2023/03/13 07:38:00;;;;;;;9.10;5.10;;;;;;;12.00;100.00;-18350.88;5012028;28;20902;-85
2023/03/13 07:40:25;;;;;;;10.30;4.93;;;;;;;12.03;100.00;-18351.69;5020187;28;20033;-85
2023/03/13 07:42:51;;;;;;;7.43;4.35;;;;;;;12.11;100.00;-18353.88;5017829;28;20038;-86
2023/03/13 07:45:16;;;;;;;8.07;4.65;;;;;;;12.18;100.00;-18355.81;5025019;28;20124;-84
2023/03/13 07:47:41;;;;;;;9.20;4.20;;;;;;;12.19;100.00;-18356.22;5021716;28;20042;-85
2023/03/13 07:50:07;;;;;;;13.07;4.35;;;;;;;12.19;100.00;-18356.09;5019397;28;20041;-85
2023/03/13 07:52:33;;;;;;;8.20;3.67;;;;;;;12.18;100.00;-18355.81;5016934;28;20041;-85
2023/03/13 07:54:58;;;;;;;12.13;3.83;;;;;;;12.24;100.00;-18357.31;5020218;28;20496;-85
2023/03/13 07:57:23;;;;;;;8.82;4.07;;;;;;;12.26;100.00;-18357.88;5012311;28;20180;-85
2023/03/13 07:59:49;;;;;;;10.60;4.13;;;;;;;12.29;100.00;-18358.69;5017519;28;20041;-85
2023/03/13 08:02:15;;;;;;;10.27;4.10;;;;;;;12.31;100.00;-18359.38;5022003;28;20053;-85
2023/03/13 08:04:41;;;;;;;10.27;3.95;;;;;;;12.31;100.00;-18359.38;5024625;28;20495;-86
2023/03/13 08:07:10;;;;;;;7.28;3.50;;;;;;;12.29;100.00;-18358.84;5024683;28;20061;-85
2023/03/13 08:09:35;;;;;;;;;;;;;;;12.34;100.00;-18360.06;5026476;28;20036;-85
2023/03/13 08:12:01;;;;;;;9.68;2.95;;;;;;;12.32;100.00;-18359.66;5026696;28;19917;-85
2023/03/13 08:14:26;;;;;;;9.73;4.05;;;;;;;12.35;100.00;-18360.47;5028084;28;20397;-85
2023/03/13 08:16:52;;;;;;;8.00;3.30;;;;;;;12.38;100.00;-18361.16;5010600;28;20045;-86
2023/03/13 08:19:17;;;;;;;10.35;3.80;;;;;;;12.48;100.00;-18363.91;5022383;28;20042;-86
2023/03/13 08:21:43;;;;;;;9.80;3.65;;;;;;;12.57;100.00;-18366.22;5002237;28;20101;-85
2023/03/13 08:24:11;;;;;;;7.70;4.10;;;;;;;12.61;100.00;-18367.47;5025986;28;20084;-85
2023/03/13 08:26:39;;;;;;;9.55;3.80;;;;;;;12.70;100.00;-18369.81;5024345;28;20041;-85
2023/03/13 08:29:07;;;;;;;8.45;3.28;;;;;;;12.70;100.00;-18369.66;5034862;28;20475;-85
2023/03/13 08:31:46;;;;;;;9.82;3.60;;;;;;;12.71;100.00;-18369.94;5036102;28;20034;-85
2023/03/13 08:34:13;;;;;;;8.60;3.22;;;;;;;12.74;100.00;-18370.75;5037515;28;20050;-84
2023/03/13 08:36:39;;;;;;;9.82;3.30;;;;;;;12.74;100.00;-18370.75;5026684;28;20034;-85
2023/03/13 08:39:15;;;;;;;5.38;2.42;;;;;;;12.77;100.00;-18371.72;5033604;28;20045;-85
2023/03/13 08:41:41;;;;;;;6.70;2.97;;;;;;;12.80;100.00;-18372.53;5022763;28;20045;-85
2023/03/13 08:44:10;;;;;;;6.38;2.53;;;;;;;12.78;100.00;-18371.88;5013165;28;20064;-86
2023/03/13 08:46:35;;;;;;;8.13;3.40;;;;;;;12.83;100.00;-18373.38;5011495;28;20037;-85
2023/03/13 08:49:01;;;;;;;7.05;3.40;;;;;;;12.87;100.00;-18374.47;5027462;28;20520;-85
2023/03/13 08:51:28;;;;;;;8.40;3.25;;;;;;;12.85;100.00;-18373.91;5026625;28;20053;-85
2023/03/13 08:53:54;;;;;;;7.60;3.30;;;;;;;12.81;100.00;-18372.81;5032288;28;20061;-85
2023/03/13 08:56:22;;;;;;;6.32;2.22;;;;;;;12.78;100.00;-18372.00;5028549;28;20041;-85
2023/03/13 08:58:50;;;;;;;8.57;3.40;;;;;;;12.82;100.00;-18373.09;5025239;28;20050;-85
2023/03/13 09:01:15;;;;;;;12.18;3.00;;;;;;;12.80;100.00;-18372.53;5029801;28;20045;-85
2023/03/13 09:03:41;;;;;;;8.50;3.40;;;;;;;12.83;100.00;-18373.38;5027916;28;20045;-85
2023/03/13 09:06:08;;;;;;;8.05;3.00;;;;;;;12.90;100.00;-18375.16;5028727;28;20052;-85
2023/03/13 09:08:34;;;;;;;5.85;2.65;;;;;;;12.90;100.00;-18375.00;5031319;28;20060;-84
2023/03/13 09:11:08;;;;;;;9.25;3.03;;;;;;;12.84;100.00;-18373.63;5028640;28;20046;-86
2023/03/13 09:13:36;;;;;;;8.40;4.18;;;;;;;12.83;100.00;-18373.38;5021055;28;20555;-85
2023/03/13 09:16:05;;;;;;;9.77;3.47;;;;;;;12.91;100.00;-18375.28;5026551;28;20103;-85
2023/03/13 09:18:31;;;;;;;8.23;3.03;;;;;;;12.97;100.00;-18377.06;5025276;28;20045;-85
2023/03/13 09:20:57;;;;;;;6.85;2.80;;;;;;;13.01;100.00;-18378.03;5026046;28;20408;-85
2023/03/13 09:23:23;;;;;;;8.98;3.80;;;;;;;13.02;100.00;-18378.31;5005135;28;20138;-86
2023/03/13 09:25:51;;;;;;;7.53;2.78;;;;;;;13.14;100.00;-18381.47;5003433;28;20034;-85
2023/03/13 09:28:17;;;;;;;7.75;3.03;;;;;;;13.13;100.00;-18381.19;5020976;28;20488;-84
2023/03/13 09:30:42;;;;;;;7.38;2.80;;;;;;;13.20;100.00;-18383.22;5023776;28;20045;-85
2023/03/13 09:33:07;;;;;;;7.55;2.63;;;;;;;13.22;100.00;-18383.78;5031465;28;20563;-84
2023/03/13 09:35:33;;;;;;;7.80;2.80;;;;;;;13.27;100.00;-18385.03;5028868;28;20034;-85
2023/03/13 09:37:58;;;;;;;8.60;2.88;;;;;;;13.36;100.00;-18387.34;5021321;28;20065;-84
2023/03/13 09:40:26;;;;;;;6.97;2.95;;;;;;;13.36;100.00;-18387.50;5018737;28;20133;-85
2023/03/13 09:42:58;;;;;;;7.35;2.78;;;;;;;13.51;100.00;-18391.47;5023731;28;20037;-84
2023/03/13 09:45:42;;;;;;;10.45;2.95;;;;;;;13.54;100.00;-18392.28;5015647;28;20045;-85
2023/03/13 09:48:28;;;;;;;6.45;2.70;;;;;;;13.45;100.00;-18389.97;4988077;28;20042;-85
2023/03/13 09:51:17;;;;;;;8.63;2.92;;;;;;;13.39;100.00;-18388.19;5017114;28;20045;-84
2023/03/13 09:54:02;;;;;;;9.07;3.07;;;;;;;13.28;100.00;-18385.44;5019043;28;20069;-85
2023/03/13 09:56:39;;;;;;;10.05;3.10;;;;;;;13.28;100.00;-18385.28;5037444;28;20275;-84
2023/03/13 09:59:15;;;;;;;7.05;3.53;;;;;;;13.28;100.00;-18385.44;5009165;28;20041;-84
2023/03/13 10:01:42;;;;;;;7.88;2.85;;;;;;;13.26;100.00;-18384.75;5040144;28;20044;-84
2023/03/13 10:04:20;;;;;;;4.10;2.38;;;;;;;13.33;100.00;-18386.66;5044844;28;20056;-85
2023/03/13 10:06:47;;;;;;;7.10;3.40;;;;;;;13.41;100.00;-18388.72;5040718;28;20071;-85
2023/03/13 10:09:19;;;;;;;9.68;3.10;;;;;;;13.47;100.00;-18390.38;5019584;28;20048;-84
2023/03/13 10:11:51;;;;;;;8.00;3.25;;;;;;;13.49;100.00;-18390.91;5023041;28;20084;-84
2023/03/13 10:14:26;;;;;;;9.05;3.60;;;;;;;13.58;100.00;-18393.25;5026297;28;20046;-84
2023/03/13 10:17:06;;;;;;;6.90;2.67;;;;;;;13.64;100.00;-18395.03;5019453;28;20080;-84
2023/03/13 10:19:36;;;;;;;5.75;2.88;;;;;;;13.69;100.00;-18396.41;5041023;28;20041;-85
2023/03/13 10:22:07;;;;;;;6.38;2.90;;;;;;;13.74;100.00;-18397.75;5018749;28;20060;-85
2023/03/13 10:24:41;;;;;;;6.53;2.60;;;;;;;13.81;100.00;-18399.41;5019390;28;20080;-85
2023/03/13 10:27:08;;;;;;;7.82;2.85;;;;;;;13.91;100.00;-18402.16;5010975;28;20142;-85
2023/03/13 10:29:33;;;;;;;5.95;2.42;;;;;;;14.09;100.00;-18407.06;5033946;28;20041;-85
2023/03/13 10:31:59;;;;;;;7.00;2.65;;;;;;;14.16;100.00;-18409.00;5020635;28;20038;-84
2023/03/13 10:34:27;;;;;;;4.57;2.10;;;;;;;14.27;100.00;-18411.72;5043775;28;20046;-85
2023/03/13 10:37:01;;;;;;;8.13;3.20;;;;;;;14.31;100.00;-18412.84;5030985;28;20045;-85
2023/03/13 10:39:28;;;;;;;6.00;1.85;;;;;;;14.30;100.00;-18412.56;5052502;28;20496;-85
2023/03/13 10:42:33;;;;;;;4.68;1.85;;;;;;;14.33;100.00;-18413.38;5038510;28;20338;-85
2023/03/13 10:45:00;;;;;;;5.18;1.90;;;;;;;14.36;100.00;-18414.19;5000497;28;20046;-85
2023/03/13 10:47:26;;;;;;;4.50;1.60;;;;;;;14.39;100.00;-18415.16;5010780;28;20063;-85
2023/03/13 10:49:55;;;;;;;4.40;1.83;;;;;;;14.39;100.00;-18415.16;5014310;28;20041;-85
2023/03/13 10:52:32;;;;;;;4.53;2.10;;;;;;;14.38;100.00;-18414.75;5004551;28;20437;-84
2023/03/13 10:55:09;;;;;;;5.78;2.08;;;;;;;14.43;100.00;-18416.13;5028987;28;20520;-85
2023/03/13 10:57:36;;;;;;;6.25;2.45;;;;;;;14.49;100.00;-18417.63;5031796;28;20239;-84
2023/03/13 11:00:27;;;;;;;5.05;2.13;;;;;;;14.42;100.00;-18415.84;5031165;28;20048;-85
2023/03/13 11:02:53;;;;;;;7.35;2.20;;;;;;;14.47;100.00;-18417.22;5020945;28;20041;-85
2023/03/13 11:05:24;;;;;;;6.65;2.10;;;;;;;14.53;100.00;-18418.72;5040964;28;20072;-84
2023/03/13 11:07:52;;;;;;;3.50;1.95;;;;;;;14.55;100.00;-18419.41;5044621;28;20045;-85
2023/03/13 11:10:23;;;;;;;4.85;1.98;;;;;;;14.55;100.00;-18419.41;5042161;28;20679;-85
2023/03/13 11:12:54;;;;;;;3.65;1.80;;;;;;;14.66;100.00;-18422.41;5031714;28;20037;-84
2023/03/13 11:15:25;;;;;;;5.15;1.60;;;;;;;14.73;100.00;-18424.06;5032511;28;20105;-84